createdAt,value
2019-01-21T06:52:38.037Z,4.00
2019-01-21T06:53:38.014Z,4.00
2019-01-21T06:54:38.010Z,84.00
2019-01-21T06:55:38.001Z,208.00
2019-01-21T06:56:37.982Z,244.00
2019-01-21T06:57:39.798Z,252.00
2019-01-21T06:58:37.965Z,256.00
2019-01-21T06:59:37.968Z,260.00
2019-01-21T07:00:37.941Z,264.00
2019-01-21T07:01:37.928Z,264.00
2019-01-21T07:02:37.914Z,264.00
2019-01-21T07:03:37.916Z,268.00
2019-01-21T07:04:37.903Z,264.00
2019-01-21T07:05:37.888Z,268.00
2019-01-21T07:06:37.901Z,264.00
2019-01-21T07:07:37.943Z,268.00
2019-01-21T07:08:37.856Z,268.00
2019-01-21T07:09:37.854Z,272.00
2019-01-21T07:10:37.827Z,272.00
2019-01-21T07:11:37.814Z,272.00
2019-01-21T07:12:37.974Z,272.00
2019-01-21T07:13:37.804Z,272.00
2019-01-21T07:14:37.781Z,272.00
2019-01-21T07:15:37.869Z,276.00
2019-01-21T07:16:37.761Z,280.00
2019-01-21T07:17:37.760Z,280.00
2019-01-21T07:18:37.816Z,284.00
2019-01-21T07:19:37.748Z,288.00
2019-01-21T07:20:37.758Z,292.00
2019-01-21T07:21:37.709Z,292.00
2019-01-21T07:22:37.728Z,296.00
2019-01-21T07:23:37.729Z,300.00
2019-01-21T07:24:37.675Z,304.00
2019-01-21T07:25:37.716Z,308.00
2019-01-21T07:26:37.671Z,312.00
2019-01-21T07:27:37.649Z,316.00
2019-01-21T07:28:37.632Z,320.00
2019-01-21T07:29:37.662Z,324.00
2019-01-21T07:30:37.621Z,332.00
2019-01-21T07:31:37.591Z,336.00
2019-01-21T07:32:37.601Z,340.00
2019-01-21T07:33:37.584Z,348.00
2019-01-21T07:34:37.567Z,352.00
2019-01-21T07:35:37.573Z,356.00
2019-01-21T07:36:37.550Z,364.00
2019-01-21T07:37:37.551Z,368.00
2019-01-21T07:38:37.611Z,376.00
2019-01-21T07:39:37.546Z,380.00
2019-01-21T07:40:37.523Z,384.00
2019-01-21T07:41:37.595Z,396.00
2019-01-21T07:42:37.490Z,400.00
2019-01-21T07:43:37.496Z,408.00
2019-01-21T07:44:37.532Z,412.00
2019-01-21T07:45:41.323Z,420.00
2019-01-21T07:46:37.434Z,424.00
2019-01-21T07:47:37.440Z,432.00
2019-01-21T07:48:37.507Z,436.00
2019-01-21T07:49:37.436Z,444.00
2019-01-21T07:50:37.401Z,448.00
2019-01-21T07:51:37.385Z,456.00
2019-01-21T07:52:37.383Z,464.00
2019-01-21T07:53:37.370Z,468.00
2019-01-21T07:54:38.488Z,476.00
2019-01-21T07:55:37.414Z,480.00
2019-01-21T07:56:37.507Z,484.00
2019-01-21T07:57:38.315Z,492.00
2019-01-21T07:58:37.347Z,500.00
2019-01-21T07:59:38.682Z,504.00
2019-01-21T08:00:52.863Z,508.00
